Aviation Digital Data Service (ADDS)

Output produced by METARs form (2112 UTC 06 December 2019)
found at http://www.aviationweather.gov/metar/data/
 
Forecast for: VEGT (GAUHATI (IN-AFB), IN)
Text: TAF VEGT 061700Z 0618/0703 00000KT 2500 BR FEW018 SCT100
Forecast period: 1800 to 2100 UTC 06 December 2019
Forecast type: FROM: standard forecast or significant change
Winds: calm
Visibility: 1.55 miles (2.49 km)
Ceiling: at least 12,000 feet AGL
Clouds: few clouds at 1800 feet AGL
scattered clouds at 10000 feet AGL
Weather: BR  (mist)
Text: BECMG 0621/0623 1500 BR FEW010 SCT018 BKN100
Forecast period: 2100 UTC 06 December 2019 to 0300 UTC 07 December 2019
Forecast type: BECOMING: Conditions expected to become as follows by 2300 UTC 06 December 2019
Winds: calm
Visibility: 0.93 miles (1.50 km)
Ceiling: 10000 feet AGL
Clouds: few clouds at 1000 feet AGL
scattered clouds at 1800 feet AGL
broken clouds at 10000 feet AGL
Weather: BR  (mist)
Text: TEMPO 0701/0702 1000 MIFG
Forecast period: 0100 to 0200 UTC 07 December 2019
Forecast type: TEMPORARY: The following changes expected for less than half the time period
Visibility: 0.62 miles (1.00 km)
Ceiling: unknown
Clouds: missing
Weather: MIFG  (shallow fog)